Time;durP1;ratioP1;P1;durP2;ratioP2;P2;SDS_P1;SDS_P2;PMS_P1;PMS_P2;Temp;Humidity;BMP_temperature;BMP_pressure;BME280_temperature;BME280_humidity;BME280_pressure;Samples;Min_cycle;Max_cycle;Signal;HPM_P1;HPM_P2
2023/06/27 00:02:16;;;;;;;8.07;3.00;;;19.70;69.20;;;22.45;47.03;101709.41;5053334;28;20563;-60
2023/06/27 00:04:43;;;;;;;6.83;3.00;;;19.70;69.20;;;22.44;47.38;101709.66;5053101;28;20307;-60
2023/06/27 00:07:10;;;;;;;7.37;2.90;;;19.70;69.20;;;22.45;47.08;101708.59;5052770;28;20224;-60
2023/06/27 00:09:38;;;;;;;5.37;2.50;;;19.70;69.40;;;22.45;47.52;101711.25;5039077;28;20277;-60
2023/06/27 00:12:07;;;;;;;10.30;3.13;;;19.70;69.40;;;22.44;47.44;101712.31;5052036;28;20190;-61
2023/06/27 00:14:37;;;;;;;11.47;2.97;;;19.70;69.60;;;22.41;47.17;101707.41;5056966;28;20198;-60
2023/06/27 00:17:10;;;;;;;8.70;3.13;;;19.60;69.50;;;22.41;47.72;101712.78;5057405;28;20574;-61
2023/06/27 00:19:37;;;;;;;12.37;3.27;;;19.60;70.00;;;22.40;47.85;101713.81;5057235;28;20242;-60
2023/06/27 00:22:09;;;;;;;11.77;3.93;;;19.70;69.90;;;22.44;47.44;101713.13;5057499;28;20277;-58
2023/06/27 00:24:37;;;;;;;6.03;2.87;;;19.70;70.00;;;22.43;47.38;101710.69;5056794;28;20268;-60
2023/06/27 00:27:05;;;;;;;6.73;2.40;;;19.60;69.70;;;22.39;47.53;101718.38;5057084;28;20210;-60
2023/06/27 00:29:33;;;;;;;7.47;2.17;;;19.60;70.00;;;22.35;47.70;101719.88;5057199;28;20197;-59
2023/06/27 00:32:00;;;;;;;6.43;2.27;;;19.60;69.90;;;22.32;47.74;101709.59;5056043;28;20194;-59
2023/06/27 00:34:28;;;;;;;2.70;1.80;;;19.60;70.10;;;22.28;47.77;101719.13;5056471;28;20190;-60
2023/06/27 00:36:55;;;;;;;5.20;2.17;;;19.50;70.10;;;22.21;47.89;101713.03;5056975;28;20200;-60
2023/06/27 00:39:22;;;;;;;6.10;2.20;;;19.50;70.10;;;22.17;47.77;101718.06;5056933;28;20216;-60
2023/06/27 00:41:49;;;;;;;4.43;2.27;;;19.40;70.20;;;22.15;48.02;101716.66;5048409;28;20209;-60
2023/06/27 00:44:17;;;;;;;8.57;2.63;;;19.40;70.30;;;22.11;47.89;101718.13;5056062;28;20325;-60
2023/06/27 00:46:47;;;;;;;5.43;2.20;;;19.40;70.50;;;22.08;47.87;101718.59;5056550;28;20206;-58
2023/06/27 00:49:18;;;;;;;4.17;2.50;;;19.30;70.40;;;22.05;48.10;101722.56;5056808;28;20194;-60
2023/06/27 00:51:48;;;;;;;4.80;2.30;;;19.30;70.80;;;22.03;48.23;101721.13;5056911;28;20229;-61
2023/06/27 00:54:17;;;;;;;6.73;2.30;;;19.30;70.80;;;22.03;48.29;101730.00;5056445;28;20236;-59
2023/06/27 00:56:46;;;;;;;4.00;2.50;;;19.20;70.80;;;22.01;48.16;101723.22;5056421;28;20213;-60
2023/06/27 00:59:13;;;;;;;5.10;2.53;;;19.20;70.70;;;21.99;47.76;101714.56;5055579;28;20244;-61
2023/06/27 01:01:40;;;;;;;7.23;2.10;;;19.20;70.70;;;21.98;48.38;101718.31;5056601;28;20273;-58
2023/06/27 01:04:07;;;;;;;5.80;2.90;;;19.20;71.00;;;21.97;48.08;101717.47;5055961;28;20221;-60
2023/06/27 01:06:43;;;;;;;4.20;2.60;;;19.20;70.90;;;21.94;48.35;101715.25;5055898;28;20276;-60
2023/06/27 01:09:24;;;;;;;14.13;2.63;;;19.20;70.70;;;21.90;48.28;101723.97;5056423;28;20193;-59
2023/06/27 01:12:01;;;;;;;4.83;2.73;;;19.20;70.60;;;21.88;48.30;101718.00;5056171;28;20272;-59
2023/06/27 01:14:31;;;;;;;5.53;1.93;;;19.10;70.60;;;21.89;47.94;101716.97;5054167;28;20217;-61
2023/06/27 01:17:00;;;;;;;6.97;2.57;;;19.10;70.50;;;21.87;48.06;101716.41;5055971;28;20190;-60
2023/06/27 01:19:31;;;;;;;8.73;2.47;;;19.10;70.50;;;21.84;47.85;101717.66;5054777;28;20197;-60
2023/06/27 01:22:05;;;;;;;5.10;2.50;;;19.10;70.40;;;21.82;47.73;101716.22;5055612;28;20221;-60
2023/06/27 01:24:36;;;;;;;8.70;2.30;;;19.10;70.50;;;21.80;47.92;101710.25;5055498;28;20650;-62
2023/06/27 01:27:04;;;;;;;7.07;2.83;;;19.00;70.40;;;21.79;47.77;101714.78;5039966;28;20290;-61
2023/06/27 01:29:32;;;;;;;4.97;2.43;;;19.00;70.40;;;21.76;48.36;101709.03;5055725;28;20202;-57
2023/06/27 01:32:13;;;;;;;2.93;2.13;;;19.00;70.40;;;21.72;48.10;101707.88;5040415;28;20316;-61
2023/06/27 01:34:53;;;;;;;3.77;2.23;;;19.00;70.40;;;21.69;48.31;101700.25;5035701;28;20308;-60
2023/06/27 01:37:25;;;;;;;6.07;2.67;;;18.90;70.40;;;21.68;48.24;101714.72;5036019;28;20179;-61
2023/06/27 01:40:02;;;;;;;4.63;2.60;;;18.90;70.60;;;21.67;48.01;101707.72;5048857;28;20252;-60
2023/06/27 01:42:37;;;;;;;6.37;2.00;;;18.90;70.50;;;21.65;47.87;101699.09;5035419;28;20265;-61
2023/06/27 01:45:07;;;;;;;6.27;2.00;;;18.80;70.30;;;21.64;47.70;101702.78;5035180;28;20214;-62
2023/06/27 01:47:39;;;;;;;5.97;2.27;;;18.90;70.20;;;21.58;48.03;101701.84;5045142;28;20267;-62
2023/06/27 01:50:09;;;;;;;2.97;2.20;;;18.80;70.10;;;21.58;47.60;101697.28;5055684;28;20194;-60
2023/06/27 01:52:36;;;;;;;5.07;2.40;;;18.80;70.30;;;21.56;47.85;101698.56;5055500;28;20201;-60
2023/06/27 01:55:06;;;;;;;5.57;2.40;;;18.80;70.10;;;21.56;47.70;101703.94;5055184;28;20214;-60
2023/06/27 01:57:34;;;;;;;3.63;2.13;;;18.80;70.40;;;21.54;47.65;101701.47;5055437;28;20658;-60
2023/06/27 02:00:01;;;;;;;7.50;2.40;;;18.70;70.30;;;21.55;47.91;101703.09;5055404;28;20281;-60
2023/06/27 02:02:28;;;;;;;6.43;2.47;;;18.70;70.40;;;21.52;47.81;101698.19;5055235;28;20198;-61
2023/06/27 02:04:55;;;;;;;6.23;2.37;;;18.70;70.40;;;21.48;48.07;101702.38;5054029;28;20228;-60
2023/06/27 02:07:22;;;;;;;4.67;2.53;;;18.70;70.60;;;21.44;48.38;101695.78;5055080;28;20215;-61
2023/06/27 02:09:49;;;;;;;7.43;2.30;;;18.60;70.60;;;21.42;47.96;101700.56;5055191;28;20225;-61
2023/06/27 02:12:17;;;;;;;4.43;2.27;;;18.60;70.80;;;21.38;48.69;101695.88;5055037;28;20200;-61
2023/06/27 02:14:44;;;;;;;7.83;2.73;;;18.60;71.10;;;21.35;48.77;101702.47;5054550;28;20210;-59
2023/06/27 02:17:11;;;;;;;6.20;2.70;;;18.50;71.30;;;21.33;48.87;101693.84;5054888;28;20536;-61
2023/06/27 02:19:39;;;;;;;4.90;2.70;;;18.50;71.20;;;21.32;48.35;101697.56;5053500;28;20190;-60
2023/06/27 02:22:06;;;;;;;10.40;2.70;;;18.50;71.40;;;21.31;48.64;101698.63;5048493;28;20742;-59
2023/06/27 02:24:33;;;;;;;4.53;2.37;;;18.50;71.80;;;21.32;49.04;101688.72;5034708;28;20229;-60
2023/06/27 02:27:00;;;;;;;4.10;2.10;;;18.50;71.40;;;21.33;48.81;101688.50;5034787;28;20741;-61
2023/06/27 02:29:29;;;;;;;5.03;2.27;;;18.50;71.40;;;21.30;48.34;101686.25;5040049;28;20228;-61
2023/06/27 02:31:56;;;;;;;4.50;2.40;;;18.60;71.30;;;21.28;48.45;101691.03;5054604;28;20674;-57
2023/06/27 02:34:23;;;;;;;5.73;2.53;;;18.50;71.20;;;21.24;48.75;101687.16;5053570;28;20662;-60
2023/06/27 02:36:49;;;;;;;4.97;2.50;;;18.50;71.10;;;21.23;48.89;101688.19;5050389;28;20186;-62
2023/06/27 02:39:16;;;;;;;5.50;2.40;;;18.40;71.00;;;21.18;48.43;101690.69;5054680;28;20281;-62
2023/06/27 02:41:43;;;;;;;4.13;2.20;;;18.40;70.80;;;21.13;48.57;101690.56;5054526;28;20194;-61
2023/06/27 02:44:10;;;;;;;6.87;2.30;;;18.30;70.90;;;21.07;48.84;101680.72;5054095;28;20225;-61
2023/06/27 02:46:39;;;;;;;5.67;2.63;;;18.30;71.10;;;21.03;48.88;101682.19;5054091;28;20263;-62
2023/06/27 02:49:06;;;;;;;6.67;2.60;;;18.30;71.00;;;20.99;48.89;101683.63;5054334;28;20213;-61
2023/06/27 02:51:32;;;;;;;3.80;2.70;;;18.20;71.10;;;20.95;48.75;101685.13;5054440;28;20185;-61
2023/06/27 02:54:00;;;;;;;5.77;2.47;;;18.20;71.10;;;20.91;48.79;101686.59;5054050;28;20185;-60
2023/06/27 02:56:27;;;;;;;4.37;2.50;;;18.20;71.30;;;20.87;48.57;101677.38;5053218;28;20208;-60
2023/06/27 02:58:54;;;;;;;5.43;2.40;;;18.20;71.20;;;20.86;48.44;101681.91;5053896;28;20202;-60
2023/06/27 03:01:20;;;;;;;7.30;2.60;;;18.10;71.20;;;20.83;48.67;101681.50;5053972;28;20190;-61
2023/06/27 03:03:49;;;;;;;5.90;2.40;;;18.10;71.80;;;20.83;48.93;101679.66;5053166;28;20717;-60
2023/06/27 03:06:19;;;;;;;5.17;2.67;;;18.10;71.40;;;20.84;48.81;101683.16;5053521;28;20209;-61
2023/06/27 03:08:46;;;;;;;7.77;3.17;;;18.10;71.60;;;20.86;48.71;101684.59;5053742;28;20289;-61
2023/06/27 03:11:13;;;;;;;5.63;2.50;;;18.10;71.80;;;20.89;48.74;101686.81;5053500;28;20208;-58
2023/06/27 03:13:40;;;;;;;6.57;2.80;;;18.10;71.70;;;20.91;49.15;101689.28;5053613;28;20265;-61
2023/06/27 03:16:07;;;;;;;5.53;2.77;;;18.10;71.60;;;20.93;48.58;101681.84;5053803;28;20588;-61
2023/06/27 03:18:34;;;;;;;7.00;3.20;;;18.10;71.60;;;20.96;48.96;101681.41;5041379;28;20309;-60
2023/06/27 03:21:02;;;;;;;5.93;2.40;;;18.10;71.60;;;20.99;48.64;101686.31;5033883;28;20268;-60
2023/06/27 03:23:29;;;;;;;4.87;2.60;;;18.10;71.70;;;21.02;49.04;101685.06;5033605;28;20278;-59
2023/06/27 03:25:58;;;;;;;6.20;2.67;;;18.20;71.70;;;21.02;48.84;101683.19;5033474;28;20214;-63
2023/06/27 03:28:25;;;;;;;9.87;3.17;;;18.20;71.50;;;21.01;48.83;101676.22;5033517;28;20277;-60
2023/06/27 03:30:52;;;;;;;4.20;2.20;;;18.20;71.20;;;20.98;48.23;101683.88;5050158;28;20193;-61
2023/06/27 03:33:19;;;;;;;5.27;2.47;;;18.20;71.10;;;20.93;48.22;101677.31;5052472;28;20224;-60
2023/06/27 03:35:46;;;;;;;4.67;2.83;;;18.10;70.90;;;20.87;48.67;101683.53;5053279;28;20216;-61
2023/06/27 03:38:15;;;;;;;3.90;2.40;;;18.10;70.80;;;20.81;48.21;101694.31;5053306;28;20730;-59
2023/06/27 03:40:42;;;;;;;5.77;2.67;;;18.10;70.80;;;20.74;48.65;101693.53;5053377;28;20194;-61
2023/06/27 03:43:12;;;;;;;5.67;2.73;;;18.00;71.00;;;20.70;48.63;101687.00;5053063;28;20280;-60
2023/06/27 03:45:40;;;;;;;4.40;2.33;;;18.00;71.10;;;20.63;48.68;101686.22;5053735;28;20264;-61
2023/06/27 03:48:09;;;;;;;4.60;2.53;;;17.90;71.30;;;20.57;49.17;101682.53;5057496;28;20728;-61
2023/06/27 03:50:36;;;;;;;6.70;2.77;;;17.80;71.60;;;20.54;48.88;101682.19;5057327;28;20585;-60
2023/06/27 03:53:03;;;;;;;5.43;2.73;;;17.80;71.70;;;20.51;49.50;101687.94;5057068;28;20194;-62
2023/06/27 03:55:33;;;;;;;2.20;2.00;;;17.80;71.90;;;20.47;49.20;101697.41;5057516;28;20214;-61
2023/06/27 03:58:00;;;;;;;5.07;2.73;;;17.70;71.90;;;20.44;49.60;101697.88;5057562;28;20523;-60
2023/06/27 04:00:27;;;;;;;7.53;3.00;;;17.70;72.10;;;20.45;49.73;101694.16;5056164;28;20221;-64
2023/06/27 04:02:55;;;;;;;6.07;2.70;;;17.70;72.40;;;20.45;49.47;101694.97;5055958;28;20217;-60
2023/06/27 04:05:22;;;;;;;5.50;2.70;;;17.70;72.90;;;20.49;49.79;101695.38;5057041;28;20220;-61
2023/06/27 04:07:49;;;;;;;4.93;3.10;;;17.70;72.90;;;20.50;49.82;101691.66;5056703;28;20292;-61
2023/06/27 04:10:18;;;;;;;5.17;3.50;;;17.70;73.10;;;20.55;49.93;101691.81;5057067;28;20281;-58
2023/06/27 04:12:46;;;;;;;5.20;2.57;;;17.70;73.20;;;20.58;49.64;101699.44;5057030;28;20251;-61
2023/06/27 04:15:13;;;;;;;9.80;2.50;;;17.70;73.20;;;20.61;49.87;101693.66;5056617;28;20316;-59
2023/06/27 04:17:40;;;;;;;5.33;2.30;;;17.70;73.00;;;20.62;49.60;101689.91;5056818;28;20185;-58
2023/06/27 04:20:08;;;;;;;5.93;2.90;;;17.80;73.00;;;20.65;49.28;101684.13;5056834;28;20276;-61
2023/06/27 04:22:35;;;;;;;3.80;2.67;;;17.80;72.90;;;20.65;49.68;101686.81;5056921;28;20194;-60
2023/06/27 04:25:03;;;;;;;3.70;2.30;;;17.80;72.80;;;20.66;49.81;101685.75;5056967;28;20751;-60
2023/06/27 04:27:30;;;;;;;4.97;3.90;;;17.80;73.00;;;20.69;49.82;101686.16;5056182;28;20213;-60
2023/06/27 04:29:58;;;;;;;5.43;2.93;;;17.80;72.80;;;20.71;49.38;101688.59;5056856;28;20284;-60
2023/06/27 04:32:25;;;;;;;3.50;2.50;;;17.80;72.50;;;20.71;49.06;101683.25;5054279;28;20190;-60
2023/06/27 04:34:57;;;;;;;5.43;3.03;;;17.90;72.70;;;20.72;49.08;101679.56;5036883;28;20222;-60
2023/06/27 04:37:24;;;;;;;6.87;3.23;;;17.90;72.60;;;20.74;49.18;101680.16;5036860;28;20181;-61
2023/06/27 04:39:54;;;;;;;5.87;3.13;;;17.90;72.60;;;20.75;49.62;101676.44;5037321;28;20205;-60
2023/06/27 04:42:21;;;;;;;8.07;3.27;;;17.90;72.60;;;20.76;49.51;101675.41;5050115;28;20193;-59
2023/06/27 04:44:48;;;;;;;6.07;2.77;;;17.90;72.60;;;20.78;49.56;101674.16;5056375;28;20234;-61
2023/06/27 04:47:16;;;;;;;5.47;3.57;;;17.90;72.70;;;20.80;49.15;101673.94;5056204;28;20222;-60
2023/06/27 04:49:43;;;;;;;5.97;2.80;;;18.00;72.60;;;20.81;49.21;101673.72;5056283;28;20670;-61
2023/06/27 04:52:10;;;;;;;5.90;3.67;;;18.00;72.60;;;20.82;49.18;101683.38;5056305;28;20221;-61
2023/06/27 04:54:37;;;;;;;5.63;2.53;;;18.00;72.50;;;20.85;49.47;101674.09;5055261;28;20232;-61
2023/06/27 04:57:05;;;;;;;8.33;3.20;;;18.00;72.50;;;20.90;49.35;101676.94;5055202;28;20214;-61
2023/06/27 04:59:39;;;;;;;4.90;2.50;;;18.00;72.60;;;20.94;49.15;101683.50;5056205;28;20178;-61
2023/06/27 05:02:06;;;;;;;5.57;3.00;;;18.00;72.50;;;20.97;48.98;101682.25;5056072;28;20201;-61
2023/06/27 05:04:34;;;;;;;3.53;2.93;;;18.10;72.60;;;21.01;49.15;101689.63;5055365;28;20554;-60
2023/06/27 05:07:02;;;;;;;14.20;10.40;;;18.10;72.40;;;21.05;48.80;101684.66;5055543;28;20613;-61
2023/06/27 05:09:29;;;;;;;4.53;2.63;;;18.20;72.50;;;21.11;48.78;101679.22;5054769;28;20209;-61
2023/06/27 05:11:56;;;;;;;5.53;2.60;;;18.20;72.20;;;21.17;49.07;101675.69;5051715;28;20199;-60
2023/06/27 05:14:23;;;;;;;6.00;2.67;;;18.30;72.10;;;21.23;49.01;101682.81;5040013;28;20186;-60
2023/06/27 05:16:50;;;;;;;3.30;2.10;;;18.30;71.90;;;21.29;48.68;101681.13;5055604;28;20240;-60
2023/06/27 05:19:17;;;;;;;6.00;3.20;;;18.40;71.80;;;21.33;48.68;101677.78;5055461;28;20190;-61
2023/06/27 05:21:45;;;;;;;5.57;2.77;;;18.40;71.50;;;21.35;48.17;101680.22;5055535;28;20651;-60
2023/06/27 05:24:12;;;;;;;5.50;3.00;;;18.50;71.40;;;21.36;48.18;101677.34;5054796;28;20659;-62
2023/06/27 05:26:39;;;;;;;6.87;2.67;;;18.50;71.40;;;21.42;48.07;101681.81;5055399;28;20249;-61
2023/06/27 05:29:06;;;;;;;5.10;2.30;;;18.50;71.50;;;21.50;47.96;101689.56;5053686;28;20220;-59
2023/06/27 05:31:33;;;;;;;6.93;2.80;;;18.60;71.60;;;21.56;47.88;101688.66;5055426;28;20190;-60
2023/06/27 05:34:00;;;;;;;4.70;2.57;;;18.70;71.40;;;21.60;47.61;101683.69;5054430;28;20281;-59
2023/06/27 05:36:27;;;;;;;4.23;2.70;;;18.70;71.10;;;21.62;47.97;101688.81;5054166;28;20272;-60
2023/06/27 05:38:55;;;;;;;6.30;2.90;;;18.70;71.00;;;21.65;47.55;101693.72;5046838;28;20693;-60
2023/06/27 05:41:23;;;;;;;4.67;2.87;;;18.70;71.00;;;21.67;47.71;101688.94;5055422;28;20668;-60
2023/06/27 05:43:50;;;;;;;4.13;2.47;;;18.80;71.10;;;21.69;48.03;101692.22;5054630;28;20209;-62
2023/06/27 05:46:17;;;;;;;4.03;2.80;;;18.80;71.20;;;21.75;47.48;101691.34;5055372;28;20217;-60
2023/06/27 05:48:44;;;;;;;9.80;3.47;;;18.80;71.00;;;21.82;47.58;101692.09;5054774;28;20214;-61
2023/06/27 05:51:11;;;;;;;5.77;2.33;;;18.90;71.10;;;21.88;48.06;101685.84;5054088;28;20276;-61
2023/06/27 05:53:39;;;;;;;8.77;2.93;;;18.90;71.10;;;21.99;48.07;101682.38;5054729;28;20229;-62
2023/06/27 05:56:08;;;;;;;6.03;2.70;;;19.00;71.00;;;22.12;47.82;101685.72;5054850;28;20619;-60
2023/06/27 05:58:35;;;;;;;6.00;2.60;;;19.10;70.90;;;22.20;47.16;101695.34;5054526;28;20182;-61
2023/06/27 06:01:03;;;;;;;3.20;2.30;;;19.20;70.90;;;22.29;47.59;101688.59;5054694;28;20623;-59
2023/06/27 06:03:32;;;;;;;4.37;2.40;;;19.30;70.70;;;22.36;46.88;101686.63;5054652;28;20232;-61
2023/06/27 06:05:59;;;;;;;3.90;2.33;;;19.40;70.40;;;22.43;46.97;101681.97;5038944;28;20309;-59
2023/06/27 06:08:26;;;;;;;3.40;2.50;;;19.40;70.20;;;22.51;46.90;101681.63;5033910;28;20305;-60
2023/06/27 06:10:53;;;;;;;7.23;2.83;;;19.50;70.10;;;22.57;46.82;101683.41;5040806;28;20292;-61
2023/06/27 06:13:21;;;;;;;2.83;2.33;;;19.60;70.00;;;22.64;46.87;101689.53;5053779;28;20202;-61
2023/06/27 06:15:48;;;;;;;4.87;2.77;;;19.70;70.00;;;22.75;46.51;101680.66;5054053;28;20241;-59
2023/06/27 06:18:15;;;;;;;3.73;2.50;;;19.70;69.80;;;22.86;46.46;101685.25;5052908;28;20273;-60
2023/06/27 06:20:42;;;;;;;5.63;2.60;;;19.80;69.70;;;22.90;46.14;101686.41;5052957;28;20346;-60
2023/06/27 06:23:09;;;;;;;7.47;2.90;;;19.90;69.50;;;22.96;46.12;101683.84;5053993;28;20230;-61
2023/06/27 06:25:36;;;;;;;5.63;2.70;;;19.90;69.30;;;22.99;46.43;101678.03;5053390;28;20237;-60
2023/06/27 06:28:03;;;;;;;7.47;2.53;;;20.00;69.40;;;23.08;46.26;101684.69;5053618;28;20702;-59
2023/06/27 06:30:31;;;;;;;3.70;2.33;;;20.10;69.40;;;23.17;46.10;101680.59;5053455;28;20714;-59
2023/06/27 06:32:58;;;;;;;5.23;2.23;;;20.10;69.30;;;23.26;45.84;101684.53;5044846;28;20269;-59
2023/06/27 06:35:25;;;;;;;4.27;2.67;;;20.20;68.90;;;23.30;45.93;101683.00;5033684;28;20210;-61
2023/06/27 06:37:53;;;;;;;7.30;2.87;;;20.30;68.80;;;23.38;45.51;101688.91;5033562;28;20215;-61
2023/06/27 06:40:21;;;;;;;6.27;3.37;;;20.30;68.40;;;23.44;45.25;101687.13;5035719;28;20185;-61
2023/06/27 06:42:48;;;;;;;4.60;3.50;;;20.40;68.30;;;23.50;45.37;101686.19;5032853;28;20294;-60
2023/06/27 06:45:17;;;;;;;4.07;2.63;;;20.50;68.10;;;23.57;45.16;101692.25;5035672;28;20222;-62
2023/06/27 06:47:46;;;;;;;6.27;2.37;;;20.50;67.80;;;23.62;45.07;101686.16;5057338;28;20211;-63
2023/06/27 06:50:16;;;;;;;3.97;2.37;;;20.60;67.60;;;23.70;45.08;101689.28;5033183;28;20641;-64
2023/06/27 06:52:48;;;;;;;9.50;3.47;;;20.60;67.60;;;23.81;44.61;101677.69;5017655;28;20194;-62
2023/06/27 06:55:18;;;;;;;7.17;2.80;;;20.70;67.50;;;23.89;44.26;101685.38;5027848;28;20260;-64
2023/06/27 06:57:45;;;;;;;6.20;2.47;;;20.80;67.10;;;23.97;44.45;101682.31;5036839;28;20205;-65
2023/06/27 07:00:20;;;;;;;6.53;2.73;;;20.90;66.80;;;24.00;44.11;101689.91;5052588;28;20217;-65
2023/06/27 07:02:52;;;;;;;6.10;2.23;;;20.90;66.50;;;24.03;43.95;101675.16;5036239;28;20190;-65
2023/06/27 07:05:23;;;;;;;4.83;2.00;;;21.00;66.10;;;24.06;44.11;101686.28;5053057;28;20578;-64
2023/06/27 07:07:55;;;;;;;3.73;2.40;;;21.00;65.90;;;24.05;43.94;101673.88;5036593;28;20217;-64
2023/06/27 07:10:23;;;;;;;3.60;2.87;;;21.00;65.90;;;24.08;43.90;101684.16;5036835;28;20202;-64
2023/06/27 07:12:54;;;;;;;5.53;2.10;;;21.00;66.10;;;24.15;44.02;101676.75;5033295;28;20300;-65
2023/06/27 07:15:23;;;;;;;4.43;2.47;;;21.10;66.20;;;24.23;43.78;101672.88;5033998;28;20273;-65
2023/06/27 07:17:59;;;;;;;4.90;2.30;;;21.10;65.90;;;24.31;43.57;101666.28;5035614;28;20224;-65
2023/06/27 07:20:32;;;;;;;3.00;1.60;;;21.20;65.80;;;24.41;43.57;101671.84;5053253;28;20186;-64
2023/06/27 07:23:00;;;;;;;3.73;2.37;;;21.30;65.40;;;24.49;43.41;101668.75;5052518;28;20229;-63
2023/06/27 07:25:28;;;;;;;4.17;2.03;;;21.40;65.20;;;24.56;43.18;101666.72;5032753;28;20229;-64
2023/06/27 07:27:56;;;;;;;7.67;2.50;;;21.50;64.50;;;24.65;42.88;101659.88;5042555;28;20217;-64
2023/06/27 07:30:24;;;;;;;2.60;1.87;;;21.60;64.80;;;24.72;42.30;101664.03;5040268;28;20577;-64
2023/06/27 07:32:52;;;;;;;4.37;2.03;;;21.60;64.00;;;24.82;41.73;101658.00;5035991;28;20200;-64
2023/06/27 07:35:24;;;;;;;6.20;2.40;;;21.70;63.10;;;24.87;40.86;101660.78;5053049;28;20222;-64
2023/06/27 07:37:52;;;;;;;5.33;2.20;;;21.70;61.60;;;24.87;40.92;101656.22;5044022;28;20206;-65
2023/06/27 07:40:22;;;;;;;5.00;2.80;;;21.80;62.30;;;24.97;41.07;101663.63;5049869;28;20285;-65
2023/06/27 07:42:52;;;;;;;5.10;2.30;;;21.90;62.30;;;25.12;40.90;101661.19;5049059;28;20220;-64
2023/06/27 07:45:22;;;;;;;3.37;1.80;;;22.00;62.50;;;25.21;40.04;101664.25;5034037;28;20312;-64
2023/06/27 07:47:50;;;;;;;4.30;2.17;;;22.00;60.60;;;25.26;40.42;101662.44;5027622;28;20275;-64
2023/06/27 07:50:23;;;;;;;11.07;2.23;;;22.10;60.30;;;25.29;39.69;101661.13;5052406;28;20542;-64
2023/06/27 07:52:53;;;;;;;5.40;1.97;;;22.10;60.10;;;25.31;40.47;101659.81;5020816;28;20198;-63
2023/06/27 07:55:21;;;;;;;5.53;2.17;;;22.20;60.50;;;25.36;40.02;101676.06;5036023;28;20225;-64
2023/06/27 07:57:51;;;;;;;5.57;1.90;;;22.20;59.90;;;25.37;39.54;101669.59;5046827;28;20199;-62
2023/06/27 08:00:20;;;;;;;3.53;2.40;;;22.30;59.90;;;25.44;39.87;101667.56;5016782;28;20202;-65
2023/06/27 08:02:47;;;;;;;4.93;1.93;;;22.30;59.40;;;25.46;38.58;101664.63;5050788;28;20207;-61
2023/06/27 08:05:14;;;;;;;3.43;1.90;;;22.30;58.30;;;25.53;38.44;101668.75;5052142;28;20272;-60
2023/06/27 08:07:41;;;;;;;7.67;2.20;;;22.40;58.40;;;25.57;38.41;101673.66;5051864;28;20220;-60
2023/06/27 08:10:11;;;;;;;5.77;2.40;;;22.40;58.30;;;25.58;38.67;101669.91;5051542;28;20208;-62
2023/06/27 08:12:38;;;;;;;5.67;2.33;;;22.50;57.50;;;25.64;38.36;101667.00;5051895;28;20284;-60
2023/06/27 08:15:07;;;;;;;3.87;1.73;;;22.50;57.30;;;25.75;37.44;101657.16;5051757;28;20611;-61
2023/06/27 08:17:34;;;;;;;4.53;2.00;;;22.60;56.30;;;25.82;37.02;101652.38;5051916;28;20194;-58
2023/06/27 08:20:02;;;;;;;3.70;1.50;;;22.70;56.10;;;26.12;36.71;101656.25;5051469;28;20248;-62
2023/06/27 08:22:29;;;;;;;3.03;1.57;;;22.80;55.30;;;26.99;35.72;101652.38;5051456;28;20318;-60
2023/06/27 08:24:56;;;;;;;2.93;1.60;;;23.00;55.50;;;27.93;34.01;101653.13;5039315;28;20302;-62
2023/06/27 08:27:24;;;;;;;2.87;1.73;;;23.40;54.70;;;29.03;31.67;101646.94;5035967;28;20571;-58
2023/06/27 08:29:51;;;;;;;3.80;1.47;;;23.90;53.10;;;30.11;30.06;101644.34;5041451;28;20203;-60
2023/06/27 08:32:18;;;;;;;4.70;1.70;;;24.50;52.10;;;31.01;29.01;101641.94;5048204;28;20214;-60
2023/06/27 08:34:45;;;;;;;2.20;1.57;;;25.10;51.10;;;32.27;27.68;101645.75;5039104;28;20272;-59
2023/06/27 08:37:13;;;;;;;6.93;1.60;;;25.90;49.20;;;33.16;25.87;101639.03;5034854;28;20197;-60
2023/06/27 08:39:40;;;;;;;3.83;1.90;;;26.60;46.10;;;33.63;25.34;101638.59;5054095;28;20738;-61
2023/06/27 08:42:07;;;;;;;2.90;1.70;;;27.30;44.10;;;34.33;24.40;101646.28;5053136;28;20691;-60
2023/06/27 08:44:36;;;;;;;4.07;1.60;;;27.90;41.80;;;35.16;23.65;101626.31;5054701;28;20218;-63
2023/06/27 08:47:08;;;;;;;3.83;1.77;;;28.60;41.70;;;35.88;21.79;101624.66;5055554;28;20272;-58
2023/06/27 08:49:37;;;;;;;3.80;2.00;;;29.10;38.10;;;35.70;22.47;101628.53;5055319;28;20293;-62
2023/06/27 08:52:13;;;;;;;3.80;1.70;;;29.50;37.50;;;35.28;21.30;101623.75;5055784;28;20233;-61
2023/06/27 08:54:51;;;;;;;1.53;1.43;;;29.60;35.10;;;35.06;22.03;101627.41;5052762;28;20282;-62
2023/06/27 08:57:24;;;;;;;4.63;1.70;;;29.60;35.10;;;34.85;23.22;101628.25;5054824;28;20277;-60
2023/06/27 08:59:55;;;;;;;2.60;1.90;;;29.60;36.00;;;34.80;22.21;101620.19;5044769;28;20248;-61
2023/06/27 09:02:26;;;;;;;2.40;1.33;;;29.60;36.50;;;34.12;23.41;101628.75;5050671;28;20198;-61
2023/06/27 09:04:53;;;;;;;3.70;2.10;;;29.50;35.50;;;33.12;23.81;101633.34;5050025;28;20233;-60
2023/06/27 09:07:21;;;;;;;4.40;1.93;;;29.10;35.50;;;32.10;25.90;101663.47;5053739;28;20210;-60
2023/06/27 09:09:49;;;;;;;4.70;2.40;;;28.60;37.90;;;30.90;31.01;101659.50;5046074;28;20213;-59
2023/06/27 09:12:16;;;;;;;4.17;1.80;;;27.80;46.20;;;29.64;33.65;101652.19;5054368;28;20224;-61
2023/06/27 09:14:43;;;;;;;3.80;1.37;;;27.00;48.50;;;28.59;35.38;101640.47;5052582;28;20256;-60
2023/06/27 09:17:12;;;;;;;1.57;1.13;;;26.30;50.00;;;27.72;35.24;101636.00;5054870;28;20197;-59
2023/06/27 09:19:39;;;;;;;2.10;1.90;;;25.50;49.20;;;27.11;36.13;101639.47;5053842;28;20285;-59
2023/06/27 09:22:06;;;;;;;4.43;2.13;;;24.90;50.80;;;26.72;37.62;101638.97;5054452;28;20710;-61
2023/06/27 09:24:40;;;;;;;2.87;1.63;;;24.30;53.60;;;26.61;37.78;101639.94;5053159;28;20186;-59
2023/06/27 09:27:09;;;;;;;2.67;2.00;;;23.90;54.90;;;26.61;38.86;101640.75;5039387;28;20233;-58
2023/06/27 09:29:36;;;;;;;6.03;3.43;;;23.60;57.20;;;26.60;40.03;101649.91;5039286;28;20241;-61
2023/06/27 09:32:08;;;;;;;4.03;2.40;;;23.50;59.60;;;26.61;40.11;101645.34;5058086;28;20239;-59
2023/06/27 09:34:37;;;;;;;5.80;3.50;;;23.40;61.10;;;26.52;39.96;101647.72;5049260;28;20220;-60
2023/06/27 09:37:04;;;;;;;4.53;2.10;;;23.30;61.00;;;26.45;40.89;101647.13;5048520;28;20281;-63
2023/06/27 09:39:34;;;;;;;6.40;2.10;;;23.20;62.40;;;26.41;41.43;101640.56;5053182;28;20214;-61
2023/06/27 09:42:02;;;;;;;5.80;2.57;;;23.10;63.60;;;27.27;41.46;101649.31;5050197;28;20273;-60
2023/06/27 09:44:29;;;;;;;6.70;2.20;;;23.20;65.30;;;28.87;38.63;101642.63;5046557;28;20194;-62
2023/06/27 09:46:56;;;;;;;2.80;2.13;;;23.50;65.70;;;30.41;36.55;101654.19;5052521;28;20221;-57
2023/06/27 09:49:30;;;;;;;2.93;1.87;;;24.10;64.50;;;31.57;33.83;101664.72;5051810;28;20301;-61
2023/06/27 09:51:58;;;;;;;3.27;1.50;;;24.70;61.00;;;31.31;31.91;101668.81;5046783;28;20356;-63
2023/06/27 09:54:27;;;;;;;3.27;1.57;;;25.30;56.40;;;30.63;32.91;101679.00;5047033;28;20186;-58
2023/06/27 09:56:56;;;;;;;5.53;1.60;;;25.50;55.00;;;29.74;34.23;101669.22;5049709;28;20710;-60
2023/06/27 09:59:26;;;;;;;3.33;1.50;;;25.40;55.40;;;28.79;35.04;101657.56;5044056;28;20935;-62
2023/06/27 10:01:54;;;;;;;3.87;1.70;;;25.10;55.50;;;27.93;37.11;101662.03;5043169;28;20241;-61
2023/06/27 10:04:21;;;;;;;3.30;1.60;;;24.70;56.90;;;27.30;38.07;101654.19;5046966;28;20285;-60
2023/06/27 10:06:52;;;;;;;2.87;2.57;;;24.30;57.40;;;26.84;39.40;101651.22;5041466;28;20281;-61
2023/06/27 10:09:21;;;;;;;2.67;1.77;;;23.90;58.50;;;26.81;39.89;101646.31;5047027;28;20210;-62
2023/06/27 10:11:49;;;;;;;5.60;2.30;;;23.60;59.70;;;28.13;38.74;101637.75;5040932;28;20189;-62
2023/06/27 10:14:18;;;;;;;3.57;2.73;;;23.60;62.20;;;30.31;35.80;101635.22;5042002;28;20744;-61
2023/06/27 10:16:46;;;;;;;4.13;2.07;;;23.90;63.80;;;31.99;32.66;101637.47;5051283;28;20305;-60
2023/06/27 10:19:15;;;;;;;4.37;2.10;;;24.50;61.70;;;33.35;31.42;101632.31;5047781;28;20198;-62